In Rescue
 
Open Full Screen Window  High Contrast Mode
Wind Gusting 00 knots
03
November 25, 2020 6:47 AM EST
Weather Information
Wind Direction
  180 °
Wind Speed
  03 kt (3 mph)
Wind Gust
  00 kt (0 mph)
Altimeter
29.98 in
Visibility
10 SM
Temperature
05° C
41° F
Dewpoint
04° C
39° F
Humidity
93%
Sky Condition
Overcast @ 3,400 ft
Broken @ 2,700 ft
MVFR

METAR KVLL 251147Z AUTO 18003KT 10SM BKN027 OVC034 05/04 A2998 RMK AO2 T00450040

FAA Disclaimer: The data displayed is for advisory purposes only and is not to be used for flight planning or operations.